sensor_id;sensor_type;location;lat;lon;timestamp;P1;durP1;ratioP1;P2;durP2;ratioP2
54167;SDS011;40072;50.958;3.592;2022-08-25T00:01:42;6.38;;;3.20;;
54167;SDS011;40072;50.958;3.592;2022-08-25T00:04:12;3.78;;;3.47;;
54167;SDS011;40072;50.958;3.592;2022-08-25T00:06:40;4.75;;;3.45;;
54167;SDS011;40072;50.958;3.592;2022-08-25T00:09:07;7.43;;;3.38;;
54167;SDS011;40072;50.958;3.592;2022-08-25T00:11:35;6.13;;;3.58;;
54167;SDS011;40072;50.958;3.592;2022-08-25T00:14:04;9.70;;;3.80;;
54167;SDS011;40072;50.958;3.592;2022-08-25T00:16:32;4.47;;;3.88;;
54167;SDS011;40072;50.958;3.592;2022-08-25T00:19:02;6.90;;;3.85;;
54167;SDS011;40072;50.958;3.592;2022-08-25T00:21:30;7.68;;;4.18;;
54167;SDS011;40072;50.958;3.592;2022-08-25T00:23:57;7.10;;;4.07;;
54167;SDS011;40072;50.958;3.592;2022-08-25T00:26:23;4.55;;;4.10;;
54167;SDS011;40072;50.958;3.592;2022-08-25T00:28:51;4.20;;;3.83;;
54167;SDS011;40072;50.958;3.592;2022-08-25T00:31:18;7.10;;;4.13;;
54167;SDS011;40072;50.958;3.592;2022-08-25T00:33:46;4.65;;;3.70;;
54167;SDS011;40072;50.958;3.592;2022-08-25T00:36:13;6.22;;;4.28;;
54167;SDS011;40072;50.958;3.592;2022-08-25T00:38:40;7.53;;;3.58;;
54167;SDS011;40072;50.958;3.592;2022-08-25T00:41:06;5.32;;;3.50;;
54167;SDS011;40072;50.958;3.592;2022-08-25T00:43:45;4.27;;;3.87;;
54167;SDS011;40072;50.958;3.592;2022-08-25T00:46:16;7.15;;;4.05;;
54167;SDS011;40072;50.958;3.592;2022-08-25T00:51:16;7.57;;;4.45;;
54167;SDS011;40072;50.958;3.592;2022-08-25T00:53:49;4.63;;;4.13;;
54167;SDS011;40072;50.958;3.592;2022-08-25T00:56:15;4.68;;;4.20;;
54167;SDS011;40072;50.958;3.592;2022-08-25T00:58:42;4.95;;;4.20;;
54167;SDS011;40072;50.958;3.592;2022-08-25T01:01:08;3.90;;;3.33;;
54167;SDS011;40072;50.958;3.592;2022-08-25T01:03:34;5.55;;;3.80;;
54167;SDS011;40072;50.958;3.592;2022-08-25T01:06:01;6.15;;;4.20;;
54167;SDS011;40072;50.958;3.592;2022-08-25T01:08:28;4.57;;;3.90;;
54167;SDS011;40072;50.958;3.592;2022-08-25T01:10:57;5.10;;;4.65;;
54167;SDS011;40072;50.958;3.592;2022-08-25T01:13:27;5.72;;;4.57;;
54167;SDS011;40072;50.958;3.592;2022-08-25T01:15:57;4.57;;;4.22;;
54167;SDS011;40072;50.958;3.592;2022-08-25T01:18:23;8.27;;;4.53;;
54167;SDS011;40072;50.958;3.592;2022-08-25T01:20:51;4.50;;;4.10;;
54167;SDS011;40072;50.958;3.592;2022-08-25T01:23:19;6.95;;;4.80;;
54167;SDS011;40072;50.958;3.592;2022-08-25T01:25:56;7.05;;;5.25;;
54167;SDS011;40072;50.958;3.592;2022-08-25T01:28:27;5.07;;;4.22;;
54167;SDS011;40072;50.958;3.592;2022-08-25T01:30:53;5.60;;;5.10;;
54167;SDS011;40072;50.958;3.592;2022-08-25T01:33:19;6.60;;;4.70;;
54167;SDS011;40072;50.958;3.592;2022-08-25T01:35:45;7.10;;;4.70;;
54167;SDS011;40072;50.958;3.592;2022-08-25T01:38:11;5.68;;;5.05;;
54167;SDS011;40072;50.958;3.592;2022-08-25T01:40:37;7.80;;;6.03;;
54167;SDS011;40072;50.958;3.592;2022-08-25T01:45:41;5.90;;;5.25;;
54167;SDS011;40072;50.958;3.592;2022-08-25T01:48:10;7.95;;;5.47;;
54167;SDS011;40072;50.958;3.592;2022-08-25T01:50:37;7.22;;;5.20;;
54167;SDS011;40072;50.958;3.592;2022-08-25T01:53:07;8.00;;;5.90;;
54167;SDS011;40072;50.958;3.592;2022-08-25T01:55:55;6.10;;;5.50;;
54167;SDS011;40072;50.958;3.592;2022-08-25T01:58:30;6.60;;;5.30;;
54167;SDS011;40072;50.958;3.592;2022-08-25T02:00:59;6.28;;;5.55;;
54167;SDS011;40072;50.958;3.592;2022-08-25T02:03:28;6.97;;;6.38;;
54167;SDS011;40072;50.958;3.592;2022-08-25T02:05:55;6.15;;;5.55;;
54167;SDS011;40072;50.958;3.592;2022-08-25T02:08:22;7.68;;;6.22;;
54167;SDS011;40072;50.958;3.592;2022-08-25T02:10:49;6.80;;;6.15;;
54167;SDS011;40072;50.958;3.592;2022-08-25T02:13:16;9.88;;;5.95;;
54167;SDS011;40072;50.958;3.592;2022-08-25T02:15:53;6.60;;;6.05;;
54167;SDS011;40072;50.958;3.592;2022-08-25T02:18:21;9.17;;;5.73;;
54167;SDS011;40072;50.958;3.592;2022-08-25T02:20:47;7.32;;;6.07;;
54167;SDS011;40072;50.958;3.592;2022-08-25T02:23:13;9.43;;;6.70;;
54167;SDS011;40072;50.958;3.592;2022-08-25T02:25:39;6.75;;;6.10;;
54167;SDS011;40072;50.958;3.592;2022-08-25T02:28:06;8.73;;;5.93;;
54167;SDS011;40072;50.958;3.592;2022-08-25T02:30:33;10.25;;;6.93;;
54167;SDS011;40072;50.958;3.592;2022-08-25T02:33:00;6.85;;;6.18;;
54167;SDS011;40072;50.958;3.592;2022-08-25T02:35:26;7.60;;;6.80;;
54167;SDS011;40072;50.958;3.592;2022-08-25T02:37:52;7.75;;;6.07;;
54167;SDS011;40072;50.958;3.592;2022-08-25T02:40:18;8.88;;;5.45;;
54167;SDS011;40072;50.958;3.592;2022-08-25T02:42:45;7.85;;;6.05;;
54167;SDS011;40072;50.958;3.592;2022-08-25T02:45:15;8.52;;;5.85;;
54167;SDS011;40072;50.958;3.592;2022-08-25T02:47:42;7.55;;;6.13;;
54167;SDS011;40072;50.958;3.592;2022-08-25T02:50:09;6.90;;;6.22;;
54167;SDS011;40072;50.958;3.592;2022-08-25T02:52:36;8.88;;;7.88;;
54167;SDS011;40072;50.958;3.592;2022-08-25T02:55:04;8.98;;;8.10;;
54167;SDS011;40072;50.958;3.592;2022-08-25T02:57:31;8.27;;;7.10;;
54167;SDS011;40072;50.958;3.592;2022-08-25T02:59:57;7.10;;;6.45;;
54167;SDS011;40072;50.958;3.592;2022-08-25T03:02:23;8.80;;;7.07;;
54167;SDS011;40072;50.958;3.592;2022-08-25T03:04:51;7.07;;;6.38;;
54167;SDS011;40072;50.958;3.592;2022-08-25T03:07:17;9.95;;;6.90;;
54167;SDS011;40072;50.958;3.592;2022-08-25T03:09:44;6.90;;;6.20;;
54167;SDS011;40072;50.958;3.592;2022-08-25T03:12:10;15.70;;;8.73;;
54167;SDS011;40072;50.958;3.592;2022-08-25T03:14:36;10.05;;;8.93;;
54167;SDS011;40072;50.958;3.592;2022-08-25T03:17:05;9.25;;;8.43;;
54167;SDS011;40072;50.958;3.592;2022-08-25T03:19:31;10.15;;;9.25;;
54167;SDS011;40072;50.958;3.592;2022-08-25T03:21:58;9.10;;;8.18;;
54167;SDS011;40072;50.958;3.592;2022-08-25T03:24:24;12.55;;;8.85;;
54167;SDS011;40072;50.958;3.592;2022-08-25T03:26:50;10.23;;;9.23;;
54167;SDS011;40072;50.958;3.592;2022-08-25T03:29:30;9.52;;;8.60;;
54167;SDS011;40072;50.958;3.592;2022-08-25T03:31:57;12.93;;;10.60;;
54167;SDS011;40072;50.958;3.592;2022-08-25T03:34:24;10.77;;;9.75;;
54167;SDS011;40072;50.958;3.592;2022-08-25T03:36:52;10.48;;;9.38;;
54167;SDS011;40072;50.958;3.592;2022-08-25T03:39:20;10.40;;;9.40;;
54167;SDS011;40072;50.958;3.592;2022-08-25T03:41:48;10.25;;;9.25;;
54167;SDS011;40072;50.958;3.592;2022-08-25T03:44:16;12.10;;;10.32;;
54167;SDS011;40072;50.958;3.592;2022-08-25T03:46:43;10.90;;;9.45;;
54167;SDS011;40072;50.958;3.592;2022-08-25T03:49:15;9.90;;;9.00;;
54167;SDS011;40072;50.958;3.592;2022-08-25T03:51:46;10.90;;;9.85;;
54167;SDS011;40072;50.958;3.592;2022-08-25T03:54:18;11.50;;;9.10;;
54167;SDS011;40072;50.958;3.592;2022-08-25T03:56:46;10.75;;;9.18;;
54167;SDS011;40072;50.958;3.592;2022-08-25T03:59:12;10.52;;;9.63;;
54167;SDS011;40072;50.958;3.592;2022-08-25T04:01:38;11.18;;;10.05;;
54167;SDS011;40072;50.958;3.592;2022-08-25T04:04:07;10.38;;;9.40;;
54167;SDS011;40072;50.958;3.592;2022-08-25T04:06:33;9.65;;;8.75;;
54167;SDS011;40072;50.958;3.592;2022-08-25T04:08:59;12.25;;;8.98;;
54167;SDS011;40072;50.958;3.592;2022-08-25T04:11:25;10.10;;;9.20;;
54167;SDS011;40072;50.958;3.592;2022-08-25T04:13:52;10.60;;;9.50;;
54167;SDS011;40072;50.958;3.592;2022-08-25T04:16:22;15.95;;;9.02;;
54167;SDS011;40072;50.958;3.592;2022-08-25T04:18:50;9.70;;;8.37;;
54167;SDS011;40072;50.958;3.592;2022-08-25T04:21:17;12.85;;;10.20;;
54167;SDS011;40072;50.958;3.592;2022-08-25T04:23:45;10.25;;;8.93;;
54167;SDS011;40072;50.958;3.592;2022-08-25T04:26:23;12.05;;;9.40;;
54167;SDS011;40072;50.958;3.592;2022-08-25T04:29:00;11.55;;;8.95;;
54167;SDS011;40072;50.958;3.592;2022-08-25T04:31:28;10.95;;;9.45;;
54167;SDS011;40072;50.958;3.592;2022-08-25T04:33:55;11.35;;;9.68;;
54167;SDS011;40072;50.958;3.592;2022-08-25T04:36:21;10.40;;;9.35;;
54167;SDS011;40072;50.958;3.592;2022-08-25T04:38:48;11.32;;;10.23;;
54167;SDS011;40072;50.958;3.592;2022-08-25T04:41:15;10.52;;;9.43;;
54167;SDS011;40072;50.958;3.592;2022-08-25T04:43:43;11.25;;;10.15;;
54167;SDS011;40072;50.958;3.592;2022-08-25T04:46:17;12.93;;;10.95;;
54167;SDS011;40072;50.958;3.592;2022-08-25T04:48:46;11.95;;;10.75;;
54167;SDS011;40072;50.958;3.592;2022-08-25T04:51:14;11.88;;;10.68;;
54167;SDS011;40072;50.958;3.592;2022-08-25T04:53:41;13.98;;;11.52;;
54167;SDS011;40072;50.958;3.592;2022-08-25T04:56:08;14.63;;;11.80;;
54167;SDS011;40072;50.958;3.592;2022-08-25T04:58:35;12.63;;;11.07;;
54167;SDS011;40072;50.958;3.592;2022-08-25T05:01:06;15.10;;;10.98;;
54167;SDS011;40072;50.958;3.592;2022-08-25T05:03:33;11.60;;;10.40;;
54167;SDS011;40072;50.958;3.592;2022-08-25T05:06:00;12.82;;;11.00;;
54167;SDS011;40072;50.958;3.592;2022-08-25T05:08:26;13.45;;;10.98;;
54167;SDS011;40072;50.958;3.592;2022-08-25T05:10:52;17.25;;;11.07;;
54167;SDS011;40072;50.958;3.592;2022-08-25T05:13:20;14.45;;;12.95;;
54167;SDS011;40072;50.958;3.592;2022-08-25T05:15:54;13.93;;;12.48;;
54167;SDS011;40072;50.958;3.592;2022-08-25T05:18:22;17.30;;;12.10;;
54167;SDS011;40072;50.958;3.592;2022-08-25T05:20:49;15.00;;;11.73;;
54167;SDS011;40072;50.958;3.592;2022-08-25T05:23:16;12.93;;;11.43;;
54167;SDS011;40072;50.958;3.592;2022-08-25T05:25:41;12.50;;;10.88;;
54167;SDS011;40072;50.958;3.592;2022-08-25T05:28:08;14.13;;;10.70;;
54167;SDS011;40072;50.958;3.592;2022-08-25T05:30:36;18.58;;;12.20;;
54167;SDS011;40072;50.958;3.592;2022-08-25T05:33:03;12.65;;;11.00;;
54167;SDS011;40072;50.958;3.592;2022-08-25T05:35:29;13.27;;;11.68;;
54167;SDS011;40072;50.958;3.592;2022-08-25T05:37:54;12.15;;;10.32;;
54167;SDS011;40072;50.958;3.592;2022-08-25T05:40:21;12.32;;;11.07;;
54167;SDS011;40072;50.958;3.592;2022-08-25T05:42:48;13.13;;;10.85;;
54167;SDS011;40072;50.958;3.592;2022-08-25T05:45:14;12.15;;;10.90;;
54167;SDS011;40072;50.958;3.592;2022-08-25T05:47:41;13.32;;;10.82;;
54167;SDS011;40072;50.958;3.592;2022-08-25T05:50:07;16.00;;;11.13;;
54167;SDS011;40072;50.958;3.592;2022-08-25T05:52:33;12.02;;;10.82;;
54167;SDS011;40072;50.958;3.592;2022-08-25T05:54:59;12.35;;;10.30;;
54167;SDS011;40072;50.958;3.592;2022-08-25T05:57:25;12.65;;;10.05;;
54167;SDS011;40072;50.958;3.592;2022-08-25T05:59:50;15.13;;;10.88;;
54167;SDS011;40072;50.958;3.592;2022-08-25T06:02:16;11.95;;;10.70;;
54167;SDS011;40072;50.958;3.592;2022-08-25T06:05:00;13.70;;;10.95;;
54167;SDS011;40072;50.958;3.592;2022-08-25T06:07:26;13.75;;;10.63;;
54167;SDS011;40072;50.958;3.592;2022-08-25T06:09:51;14.95;;;10.25;;
54167;SDS011;40072;50.958;3.592;2022-08-25T06:12:17;14.38;;;11.07;;
54167;SDS011;40072;50.958;3.592;2022-08-25T06:14:45;12.90;;;9.57;;
54167;SDS011;40072;50.958;3.592;2022-08-25T06:17:11;11.73;;;10.38;;
54167;SDS011;40072;50.958;3.592;2022-08-25T06:19:36;17.10;;;10.13;;
54167;SDS011;40072;50.958;3.592;2022-08-25T06:22:02;14.57;;;9.90;;
54167;SDS011;40072;50.958;3.592;2022-08-25T06:24:28;10.70;;;9.55;;
54167;SDS011;40072;50.958;3.592;2022-08-25T06:26:53;11.48;;;9.93;;
54167;SDS011;40072;50.958;3.592;2022-08-25T06:29:20;15.65;;;10.00;;
54167;SDS011;40072;50.958;3.592;2022-08-25T06:31:46;10.63;;;8.93;;
54167;SDS011;40072;50.958;3.592;2022-08-25T06:34:13;14.63;;;8.93;;
54167;SDS011;40072;50.958;3.592;2022-08-25T06:36:39;12.52;;;8.57;;
54167;SDS011;40072;50.958;3.592;2022-08-25T06:39:05;12.40;;;8.77;;
54167;SDS011;40072;50.958;3.592;2022-08-25T06:41:31;10.32;;;8.07;;
54167;SDS011;40072;50.958;3.592;2022-08-25T06:43:57;10.30;;;7.88;;
54167;SDS011;40072;50.958;3.592;2022-08-25T06:46:23;12.68;;;8.45;;
54167;SDS011;40072;50.958;3.592;2022-08-25T06:48:51;13.35;;;8.48;;
54167;SDS011;40072;50.958;3.592;2022-08-25T06:51:22;14.52;;;8.20;;
54167;SDS011;40072;50.958;3.592;2022-08-25T06:53:49;12.75;;;7.60;;
54167;SDS011;40072;50.958;3.592;2022-08-25T06:56:15;12.68;;;7.82;;
54167;SDS011;40072;50.958;3.592;2022-08-25T06:58:42;15.90;;;7.20;;
54167;SDS011;40072;50.958;3.592;2022-08-25T07:01:12;8.30;;;6.15;;
54167;SDS011;40072;50.958;3.592;2022-08-25T07:03:38;8.98;;;6.20;;
54167;SDS011;40072;50.958;3.592;2022-08-25T07:06:04;10.82;;;6.07;;
54167;SDS011;40072;50.958;3.592;2022-08-25T07:08:30;11.05;;;5.97;;
54167;SDS011;40072;50.958;3.592;2022-08-25T07:10:56;11.65;;;6.35;;
54167;SDS011;40072;50.958;3.592;2022-08-25T07:13:22;7.20;;;5.45;;
54167;SDS011;40072;50.958;3.592;2022-08-25T07:15:52;13.75;;;6.45;;
54167;SDS011;40072;50.958;3.592;2022-08-25T07:18:19;14.00;;;5.57;;
54167;SDS011;40072;50.958;3.592;2022-08-25T07:20:44;12.20;;;5.50;;
54167;SDS011;40072;50.958;3.592;2022-08-25T07:23:10;9.80;;;5.20;;
54167;SDS011;40072;50.958;3.592;2022-08-25T07:25:36;7.50;;;4.93;;
54167;SDS011;40072;50.958;3.592;2022-08-25T07:28:01;6.13;;;4.50;;
54167;SDS011;40072;50.958;3.592;2022-08-25T07:30:28;7.65;;;4.35;;
54167;SDS011;40072;50.958;3.592;2022-08-25T07:32:54;7.85;;;3.58;;
54167;SDS011;40072;50.958;3.592;2022-08-25T07:35:19;14.93;;;3.60;;
54167;SDS011;40072;50.958;3.592;2022-08-25T07:37:50;9.73;;;3.05;;
54167;SDS011;40072;50.958;3.592;2022-08-25T07:40:20;6.30;;;3.38;;
54167;SDS011;40072;50.958;3.592;2022-08-25T07:45:15;10.95;;;2.20;;
54167;SDS011;40072;50.958;3.592;2022-08-25T07:47:42;13.30;;;3.05;;
54167;SDS011;40072;50.958;3.592;2022-08-25T07:50:09;10.10;;;2.40;;
54167;SDS011;40072;50.958;3.592;2022-08-25T07:52:36;8.43;;;2.65;;
54167;SDS011;40072;50.958;3.592;2022-08-25T07:55:02;6.03;;;2.70;;
54167;SDS011;40072;50.958;3.592;2022-08-25T07:57:28;6.13;;;2.17;;
54167;SDS011;40072;50.958;3.592;2022-08-25T07:59:55;9.35;;;2.47;;
54167;SDS011;40072;50.958;3.592;2022-08-25T08:02:22;10.60;;;2.38;;
54167;SDS011;40072;50.958;3.592;2022-08-25T08:04:48;6.47;;;2.97;;
54167;SDS011;40072;50.958;3.592;2022-08-25T08:07:16;13.23;;;2.63;;
54167;SDS011;40072;50.958;3.592;2022-08-25T08:09:47;4.97;;;2.28;;
54167;SDS011;40072;50.958;3.592;2022-08-25T08:12:12;8.05;;;2.40;;
54167;SDS011;40072;50.958;3.592;2022-08-25T08:14:38;9.27;;;2.45;;
54167;SDS011;40072;50.958;3.592;2022-08-25T08:17:07;5.65;;;2.47;;
54167;SDS011;40072;50.958;3.592;2022-08-25T08:19:34;4.57;;;2.03;;
54167;SDS011;40072;50.958;3.592;2022-08-25T08:22:01;6.70;;;2.22;;
54167;SDS011;40072;50.958;3.592;2022-08-25T08:24:28;4.55;;;2.25;;
54167;SDS011;40072;50.958;3.592;2022-08-25T08:26:55;7.32;;;2.35;;
54167;SDS011;40072;50.958;3.592;2022-08-25T08:29:21;12.57;;;1.90;;
54167;SDS011;40072;50.958;3.592;2022-08-25T08:31:47;8.73;;;1.70;;
54167;SDS011;40072;50.958;3.592;2022-08-25T08:34:13;8.73;;;1.67;;
54167;SDS011;40072;50.958;3.592;2022-08-25T08:36:39;5.13;;;1.70;;
54167;SDS011;40072;50.958;3.592;2022-08-25T08:39:05;4.15;;;1.60;;
54167;SDS011;40072;50.958;3.592;2022-08-25T08:50:03;5.68;;;2.00;;
54167;SDS011;40072;50.958;3.592;2022-08-25T08:52:43;3.85;;;1.65;;
54167;SDS011;40072;50.958;3.592;2022-08-25T08:55:16;2.30;;;1.40;;
54167;SDS011;40072;50.958;3.592;2022-08-25T08:57:50;4.57;;;1.83;;
54167;SDS011;40072;50.958;3.592;2022-08-25T09:00:19;3.25;;;1.33;;
54167;SDS011;40072;50.958;3.592;2022-08-25T09:02:49;2.78;;;1.50;;
54167;SDS011;40072;50.958;3.592;2022-08-25T09:05:46;4.88;;;1.17;;
54167;SDS011;40072;50.958;3.592;2022-08-25T09:08:14;4.50;;;1.77;;
54167;SDS011;40072;50.958;3.592;2022-08-25T09:19:34;6.82;;;1.48;;
54167;SDS011;40072;50.958;3.592;2022-08-25T09:22:38;5.18;;;1.42;;
54167;SDS011;40072;50.958;3.592;2022-08-25T09:30:20;8.40;;;1.80;;
54167;SDS011;40072;50.958;3.592;2022-08-25T09:32:51;5.05;;;1.10;;
54167;SDS011;40072;50.958;3.592;2022-08-25T09:35:26;3.55;;;1.55;;
54167;SDS011;40072;50.958;3.592;2022-08-25T09:38:03;3.65;;;1.30;;
54167;SDS011;40072;50.958;3.592;2022-08-25T09:40:33;3.53;;;1.70;;
54167;SDS011;40072;50.958;3.592;2022-08-25T09:43:03;5.65;;;1.52;;
54167;SDS011;40072;50.958;3.592;2022-08-25T09:45:45;2.38;;;1.25;;
54167;SDS011;40072;50.958;3.592;2022-08-25T09:48:20;9.95;;;1.50;;
54167;SDS011;40072;50.958;3.592;2022-08-25T09:53:36;8.70;;;1.35;;
54167;SDS011;40072;50.958;3.592;2022-08-25T09:56:29;8.77;;;1.63;;
54167;SDS011;40072;50.958;3.592;2022-08-25T10:02:04;3.45;;;1.40;;
54167;SDS011;40072;50.958;3.592;2022-08-25T10:04:49;4.93;;;1.70;;
54167;SDS011;40072;50.958;3.592;2022-08-25T10:07:33;5.72;;;1.50;;
54167;SDS011;40072;50.958;3.592;2022-08-25T10:10:04;9.32;;;1.40;;
54167;SDS011;40072;50.958;3.592;2022-08-25T10:17:43;6.85;;;2.13;;
54167;SDS011;40072;50.958;3.592;2022-08-25T10:22:35;3.58;;;1.20;;
54167;SDS011;40072;50.958;3.592;2022-08-25T10:25:03;3.42;;;1.50;;
54167;SDS011;40072;50.958;3.592;2022-08-25T10:30:14;4.57;;;1.85;;
54167;SDS011;40072;50.958;3.592;2022-08-25T10:36:10;4.47;;;1.60;;
54167;SDS011;40072;50.958;3.592;2022-08-25T10:38:30;6.13;;;1.60;;
54167;SDS011;40072;50.958;3.592;2022-08-25T10:50:08;8.70;;;1.98;;
54167;SDS011;40072;50.958;3.592;2022-08-25T10:52:39;8.63;;;1.73;;
54167;SDS011;40072;50.958;3.592;2022-08-25T10:55:17;9.43;;;1.98;;
54167;SDS011;40072;50.958;3.592;2022-08-25T10:58:02;7.78;;;2.05;;
54167;SDS011;40072;50.958;3.592;2022-08-25T11:00:54;9.07;;;2.13;;
54167;SDS011;40072;50.958;3.592;2022-08-25T11:11:08;3.25;;;2.05;;
54167;SDS011;40072;50.958;3.592;2022-08-25T11:14:06;7.10;;;1.73;;
54167;SDS011;40072;50.958;3.592;2022-08-25T11:16:41;12.95;;;2.85;;
54167;SDS011;40072;50.958;3.592;2022-08-25T11:19:32;10.60;;;2.20;;
54167;SDS011;40072;50.958;3.592;2022-08-25T11:24:38;4.97;;;1.90;;
54167;SDS011;40072;50.958;3.592;2022-08-25T11:27:10;9.02;;;3.25;;
54167;SDS011;40072;50.958;3.592;2022-08-25T11:30:09;12.13;;;3.13;;
54167;SDS011;40072;50.958;3.592;2022-08-25T11:32:36;8.82;;;3.20;;
54167;SDS011;40072;50.958;3.592;2022-08-25T11:35:07;11.65;;;2.92;;
54167;SDS011;40072;50.958;3.592;2022-08-25T11:37:37;14.20;;;2.88;;
54167;SDS011;40072;50.958;3.592;2022-08-25T11:51:56;10.82;;;3.85;;
54167;SDS011;40072;50.958;3.592;2022-08-25T11:54:23;13.02;;;5.10;;
54167;SDS011;40072;50.958;3.592;2022-08-25T11:57:20;10.80;;;4.50;;
54167;SDS011;40072;50.958;3.592;2022-08-25T12:10:17;8.10;;;3.97;;
54167;SDS011;40072;50.958;3.592;2022-08-25T12:16:29;15.00;;;4.30;;
54167;SDS011;40072;50.958;3.592;2022-08-25T12:18:15;13.35;;;4.60;;
54167;SDS011;40072;50.958;3.592;2022-08-25T12:37:33;6.30;;;4.00;;
54167;SDS011;40072;50.958;3.592;2022-08-25T12:39:59;11.63;;;4.25;;
54167;SDS011;40072;50.958;3.592;2022-08-25T12:42:30;10.15;;;3.58;;
54167;SDS011;40072;50.958;3.592;2022-08-25T12:47:46;8.20;;;3.28;;
54167;SDS011;40072;50.958;3.592;2022-08-25T12:53:09;7.75;;;4.05;;
54167;SDS011;40072;50.958;3.592;2022-08-25T12:55:53;8.32;;;3.80;;
54167;SDS011;40072;50.958;3.592;2022-08-25T12:58:27;7.32;;;4.60;;
54167;SDS011;40072;50.958;3.592;2022-08-25T13:09:48;10.27;;;6.22;;
54167;SDS011;40072;50.958;3.592;2022-08-25T13:12:41;14.13;;;6.30;;
54167;SDS011;40072;50.958;3.592;2022-08-25T13:15:26;7.60;;;5.22;;
54167;SDS011;40072;50.958;3.592;2022-08-25T13:18:11;7.90;;;4.82;;
54167;SDS011;40072;50.958;3.592;2022-08-25T13:20:43;10.27;;;5.10;;
54167;SDS011;40072;50.958;3.592;2022-08-25T13:23:10;10.88;;;4.03;;
54167;SDS011;40072;50.958;3.592;2022-08-25T13:25:38;13.73;;;4.75;;
54167;SDS011;40072;50.958;3.592;2022-08-25T13:28:19;9.45;;;4.38;;
54167;SDS011;40072;50.958;3.592;2022-08-25T13:33:53;10.80;;;5.85;;
54167;SDS011;40072;50.958;3.592;2022-08-25T13:36:25;14.77;;;6.40;;
54167;SDS011;40072;50.958;3.592;2022-08-25T13:39:19;11.60;;;5.57;;
54167;SDS011;40072;50.958;3.592;2022-08-25T13:41:48;11.05;;;5.78;;
54167;SDS011;40072;50.958;3.592;2022-08-25T13:44:18;17.30;;;7.10;;
54167;SDS011;40072;50.958;3.592;2022-08-25T13:46:46;14.23;;;7.28;;
54167;SDS011;40072;50.958;3.592;2022-08-25T13:49:28;15.55;;;11.23;;
54167;SDS011;40072;50.958;3.592;2022-08-25T13:51:54;17.13;;;13.55;;
54167;SDS011;40072;50.958;3.592;2022-08-25T13:54:26;17.70;;;12.73;;
54167;SDS011;40072;50.958;3.592;2022-08-25T13:57:11;21.45;;;14.63;;
54167;SDS011;40072;50.958;3.592;2022-08-25T13:59:41;13.15;;;11.73;;
54167;SDS011;40072;50.958;3.592;2022-08-25T14:02:10;18.23;;;14.35;;
54167;SDS011;40072;50.958;3.592;2022-08-25T14:07:06;20.67;;;17.13;;
54167;SDS011;40072;50.958;3.592;2022-08-25T14:09:39;21.85;;;15.75;;
54167;SDS011;40072;50.958;3.592;2022-08-25T14:12:25;23.50;;;15.98;;
54167;SDS011;40072;50.958;3.592;2022-08-25T14:14:58;24.75;;;18.67;;
54167;SDS011;40072;50.958;3.592;2022-08-25T14:17:47;21.27;;;18.98;;
54167;SDS011;40072;50.958;3.592;2022-08-25T14:20:24;24.92;;;18.20;;
54167;SDS011;40072;50.958;3.592;2022-08-25T14:22:57;23.17;;;17.13;;
54167;SDS011;40072;50.958;3.592;2022-08-25T14:25:37;19.42;;;15.40;;
54167;SDS011;40072;50.958;3.592;2022-08-25T14:28:04;18.20;;;15.52;;
54167;SDS011;40072;50.958;3.592;2022-08-25T14:30:34;17.85;;;13.75;;
54167;SDS011;40072;50.958;3.592;2022-08-25T14:33:03;15.63;;;12.05;;
54167;SDS011;40072;50.958;3.592;2022-08-25T14:35:29;21.05;;;11.20;;
54167;SDS011;40072;50.958;3.592;2022-08-25T14:37:55;16.17;;;10.18;;
54167;SDS011;40072;50.958;3.592;2022-08-25T14:40:21;17.05;;;9.55;;
54167;SDS011;40072;50.958;3.592;2022-08-25T14:42:47;14.23;;;9.90;;
54167;SDS011;40072;50.958;3.592;2022-08-25T14:45:16;14.07;;;8.80;;
54167;SDS011;40072;50.958;3.592;2022-08-25T14:47:43;11.90;;;7.70;;
54167;SDS011;40072;50.958;3.592;2022-08-25T14:50:10;13.07;;;9.20;;
54167;SDS011;40072;50.958;3.592;2022-08-25T14:52:39;13.77;;;9.13;;
54167;SDS011;40072;50.958;3.592;2022-08-25T14:55:07;15.80;;;9.85;;
54167;SDS011;40072;50.958;3.592;2022-08-25T14:57:33;14.57;;;9.10;;
54167;SDS011;40072;50.958;3.592;2022-08-25T15:00:00;11.88;;;7.57;;
54167;SDS011;40072;50.958;3.592;2022-08-25T15:02:26;14.20;;;7.22;;
54167;SDS011;40072;50.958;3.592;2022-08-25T15:04:57;10.15;;;6.50;;
54167;SDS011;40072;50.958;3.592;2022-08-25T15:07:26;13.18;;;7.45;;
54167;SDS011;40072;50.958;3.592;2022-08-25T15:10:11;18.85;;;7.82;;
54167;SDS011;40072;50.958;3.592;2022-08-25T15:12:37;11.27;;;5.85;;
54167;SDS011;40072;50.958;3.592;2022-08-25T15:15:03;13.48;;;6.85;;
54167;SDS011;40072;50.958;3.592;2022-08-25T15:17:29;11.23;;;5.22;;
54167;SDS011;40072;50.958;3.592;2022-08-25T15:19:55;18.67;;;5.63;;
54167;SDS011;40072;50.958;3.592;2022-08-25T15:22:21;13.15;;;4.88;;
54167;SDS011;40072;50.958;3.592;2022-08-25T15:24:47;12.43;;;5.93;;
54167;SDS011;40072;50.958;3.592;2022-08-25T15:27:13;13.13;;;6.07;;
54167;SDS011;40072;50.958;3.592;2022-08-25T15:29:42;17.08;;;7.03;;
54167;SDS011;40072;50.958;3.592;2022-08-25T15:32:08;21.95;;;7.57;;
54167;SDS011;40072;50.958;3.592;2022-08-25T15:34:34;17.30;;;6.80;;
54167;SDS011;40072;50.958;3.592;2022-08-25T15:37:08;15.27;;;6.13;;
54167;SDS011;40072;50.958;3.592;2022-08-25T15:39:36;19.65;;;5.53;;
54167;SDS011;40072;50.958;3.592;2022-08-25T15:42:03;13.13;;;5.60;;
54167;SDS011;40072;50.958;3.592;2022-08-25T15:44:30;17.17;;;6.70;;
54167;SDS011;40072;50.958;3.592;2022-08-25T15:46:56;17.98;;;6.80;;
54167;SDS011;40072;50.958;3.592;2022-08-25T15:49:23;26.73;;;8.02;;
54167;SDS011;40072;50.958;3.592;2022-08-25T15:51:53;16.85;;;7.88;;
54167;SDS011;40072;50.958;3.592;2022-08-25T15:54:20;17.02;;;7.63;;
54167;SDS011;40072;50.958;3.592;2022-08-25T15:56:47;17.25;;;8.77;;
54167;SDS011;40072;50.958;3.592;2022-08-25T15:59:13;25.98;;;10.48;;
54167;SDS011;40072;50.958;3.592;2022-08-25T16:01:39;20.13;;;9.68;;
54167;SDS011;40072;50.958;3.592;2022-08-25T16:04:05;27.20;;;10.60;;
54167;SDS011;40072;50.958;3.592;2022-08-25T16:06:31;19.95;;;9.32;;
54167;SDS011;40072;50.958;3.592;2022-08-25T16:08:57;14.15;;;8.25;;
54167;SDS011;40072;50.958;3.592;2022-08-25T16:11:25;18.13;;;8.48;;
54167;SDS011;40072;50.958;3.592;2022-08-25T16:13:53;18.13;;;8.27;;
54167;SDS011;40072;50.958;3.592;2022-08-25T16:16:20;17.25;;;7.70;;
54167;SDS011;40072;50.958;3.592;2022-08-25T16:18:48;23.67;;;8.10;;
54167;SDS011;40072;50.958;3.592;2022-08-25T16:21:16;18.65;;;7.28;;
54167;SDS011;40072;50.958;3.592;2022-08-25T16:23:44;20.80;;;8.70;;
54167;SDS011;40072;50.958;3.592;2022-08-25T16:26:10;22.02;;;8.00;;
54167;SDS011;40072;50.958;3.592;2022-08-25T16:28:37;27.45;;;9.10;;
54167;SDS011;40072;50.958;3.592;2022-08-25T16:31:04;20.10;;;6.97;;
54167;SDS011;40072;50.958;3.592;2022-08-25T16:33:30;21.27;;;6.57;;
54167;SDS011;40072;50.958;3.592;2022-08-25T16:36:07;20.38;;;6.78;;
54167;SDS011;40072;50.958;3.592;2022-08-25T16:38:42;20.45;;;5.68;;
54167;SDS011;40072;50.958;3.592;2022-08-25T16:41:12;16.83;;;5.18;;
54167;SDS011;40072;50.958;3.592;2022-08-25T16:43:42;14.85;;;5.80;;
54167;SDS011;40072;50.958;3.592;2022-08-25T16:46:10;20.02;;;5.85;;
54167;SDS011;40072;50.958;3.592;2022-08-25T16:48:38;19.05;;;4.95;;
54167;SDS011;40072;50.958;3.592;2022-08-25T16:51:05;16.73;;;5.20;;
54167;SDS011;40072;50.958;3.592;2022-08-25T16:53:32;18.03;;;5.37;;
54167;SDS011;40072;50.958;3.592;2022-08-25T16:56:17;16.10;;;4.53;;
54167;SDS011;40072;50.958;3.592;2022-08-25T16:58:48;18.75;;;5.68;;
54167;SDS011;40072;50.958;3.592;2022-08-25T17:01:21;12.20;;;3.88;;
54167;SDS011;40072;50.958;3.592;2022-08-25T17:03:49;11.43;;;4.30;;